Time;durP1;ratioP1;P1;durP2;ratioP2;P2;SDS_P1;SDS_P2;PMS_P1;PMS_P2;Temp;Humidity;BMP_temperature;BMP_pressure;BME280_temperature;BME280_humidity;BME280_pressure;Samples;Min_cycle;Max_cycle;Signal;HPM_P1;HPM_P2
2021/12/03 00:00:55;;;;;;;4.00;1.70;;;1.00;99.90;;;;;;4908705;29;20039;-60
2021/12/03 00:03:21;;;;;;;4.47;1.80;;;0.90;99.90;;;;;;4909588;29;20052;-53
2021/12/03 00:05:48;;;;;;;4.90;1.95;;;0.90;99.90;;;;;;4892089;29;20083;-60
2021/12/03 00:08:14;;;;;;;5.40;1.90;;;0.90;99.90;;;;;;4908712;29;20051;-59
2021/12/03 00:10:40;;;;;;;3.92;1.63;;;0.80;99.90;;;;;;4908572;29;20500;-59
2021/12/03 00:13:07;;;;;;;5.13;1.92;;;0.80;99.90;;;;;;4906723;29;20080;-60
2021/12/03 00:15:35;;;;;;;6.57;2.10;;;0.80;99.90;;;;;;4909608;29;20119;-56
2021/12/03 00:18:01;;;;;;;7.40;2.03;;;0.80;99.90;;;;;;4909744;29;20051;-60
2021/12/03 00:20:27;;;;;;;6.95;1.95;;;0.80;99.90;;;;;;4908873;29;20044;-59
2021/12/03 00:22:57;;;;;;;5.15;2.00;;;0.70;99.90;;;;;;4889707;29;20526;-60
2021/12/03 00:25:23;;;;;;;4.72;1.58;;;0.80;99.90;;;;;;4906528;29;20243;-57
2021/12/03 00:27:50;;;;;;;9.65;1.98;;;0.80;99.90;;;;;;4902353;29;20879;-59
2021/12/03 00:30:18;;;;;;;5.75;1.67;;;0.70;99.90;;;;;;4904835;29;20126;-60
2021/12/03 00:32:45;;;;;;;4.32;1.60;;;0.80;99.90;;;;;;4906448;29;20047;-59
2021/12/03 00:35:12;;;;;;;5.82;1.98;;;0.80;99.90;;;;;;4909217;29;20495;-55
2021/12/03 00:37:39;;;;;;;10.05;2.25;;;0.80;99.90;;;;;;4900839;29;20039;-60
2021/12/03 00:40:08;;;;;;;6.43;1.92;;;0.80;99.90;;;;;;4907059;29;20127;-59
2021/12/03 00:42:34;;;;;;;5.22;1.67;;;0.90;99.90;;;;;;4891814;29;20436;-60
2021/12/03 00:45:01;;;;;;;10.10;1.73;;;0.90;99.90;;;;;;4875675;29;20050;-60
2021/12/03 00:47:27;;;;;;;8.30;2.13;;;0.90;99.90;;;;;;4908361;29;20163;-60
2021/12/03 00:49:53;;;;;;;6.72;1.95;;;0.90;99.90;;;;;;4918623;29;20063;-60
2021/12/03 00:52:19;;;;;;;4.45;2.20;;;1.00;99.90;;;;;;4928098;29;20384;-57
2021/12/03 00:54:45;;;;;;;8.45;2.03;;;1.00;99.90;;;;;;4924308;29;20059;-60
2021/12/03 00:57:11;;;;;;;7.82;2.33;;;1.00;99.90;;;;;;4925928;29;20539;-60
2021/12/03 00:59:37;;;;;;;5.28;1.90;;;1.00;99.90;;;;;;4927620;29;20135;-59
2021/12/03 01:02:03;;;;;;;5.00;2.00;;;1.10;99.90;;;;;;4926354;29;20581;-60
2021/12/03 01:04:29;;;;;;;6.32;2.85;;;1.10;99.90;;;;;;4908627;29;20082;-59
2021/12/03 01:06:55;;;;;;;6.88;1.90;;;1.10;99.90;;;;;;4891622;29;20467;-60
2021/12/03 01:09:21;;;;;;;7.65;2.00;;;1.10;99.90;;;;;;4909568;29;20056;-59
2021/12/03 01:11:49;;;;;;;8.18;1.90;;;1.10;99.90;;;;;;4926082;29;20131;-60
2021/12/03 01:14:15;;;;;;;4.85;2.40;;;1.10;99.90;;;;;;4923787;29;20097;-60
2021/12/03 01:16:41;;;;;;;6.88;2.45;;;1.10;99.90;;;;;;4925141;29;20043;-58
2021/12/03 01:19:07;;;;;;;3.58;2.35;;;1.10;99.90;;;;;;4924781;29;20047;-58
2021/12/03 01:21:33;;;;;;;5.07;2.40;;;1.10;99.90;;;;;;4918675;29;20570;-60
2021/12/03 01:23:59;;;;;;;15.07;2.70;;;1.10;99.90;;;;;;4916681;29;20035;-60
2021/12/03 01:26:25;;;;;;;10.38;3.03;;;1.00;99.90;;;;;;4919958;29;20047;-60
2021/12/03 01:28:51;;;;;;;6.75;2.83;;;1.10;99.90;;;;;;4918722;29;20072;-60
2021/12/03 01:31:18;;;;;;;8.27;2.50;;;1.00;99.90;;;;;;4920539;29;20122;-59
2021/12/03 01:33:46;;;;;;;6.65;2.30;;;1.00;99.90;;;;;;4901783;29;20051;-60
2021/12/03 01:36:13;;;;;;;5.60;2.25;;;1.00;99.90;;;;;;4917589;29;20056;-59
2021/12/03 01:38:39;;;;;;;8.95;2.60;;;1.00;99.90;;;;;;4918516;29;20103;-60
2021/12/03 01:41:05;;;;;;;6.55;2.70;;;1.00;99.90;;;;;;4917566;29;20044;-58
2021/12/03 01:43:31;;;;;;;8.18;3.50;;;1.00;99.90;;;;;;4922090;29;20055;-55
2021/12/03 01:46:04;;;;;;;4.63;2.33;;;1.00;99.90;;;;;;4897675;29;20530;-54
2021/12/03 01:48:30;;;;;;;9.80;2.50;;;1.00;99.90;;;;;;4923381;29;20098;-58
2021/12/03 01:50:57;;;;;;;8.82;2.40;;;1.00;99.90;;;;;;4920794;29;20413;-59
2021/12/03 01:53:26;;;;;;;5.97;2.40;;;1.00;99.90;;;;;;4898378;29;20582;-59
2021/12/03 01:55:55;;;;;;;8.32;2.30;;;1.00;99.90;;;;;;4901299;29;20570;-58
2021/12/03 01:58:20;;;;;;;6.45;2.65;;;1.00;99.90;;;;;;4919361;29;20044;-58
2021/12/03 02:00:51;;;;;;;8.82;2.30;;;1.00;99.90;;;;;;4900637;29;20470;-57
2021/12/03 02:03:19;;;;;;;5.65;2.20;;;1.10;99.90;;;;;;4901624;29;21697;-59
2021/12/03 02:05:45;;;;;;;7.32;2.25;;;1.10;99.90;;;;;;4906755;29;20048;-57
2021/12/03 02:08:12;;;;;;;8.50;2.95;;;1.00;99.90;;;;;;4926958;29;20305;-60
2021/12/03 02:10:39;;;;;;;6.63;2.30;;;1.10;99.90;;;;;;4909204;29;20044;-60
2021/12/03 02:13:05;;;;;;;5.32;2.03;;;1.10;99.90;;;;;;4923807;29;20043;-60
2021/12/03 02:15:32;;;;;;;4.32;2.13;;;1.10;99.90;;;;;;4908032;29;20040;-59
2021/12/03 02:17:58;;;;;;;6.25;1.98;;;1.10;99.90;;;;;;4925852;29;20171;-60
2021/12/03 02:20:25;;;;;;;5.43;1.95;;;1.10;99.90;;;;;;4925341;29;20047;-54
2021/12/03 02:22:51;;;;;;;7.90;2.10;;;1.00;99.90;;;;;;4924552;29;20055;-59
2021/12/03 02:25:20;;;;;;;8.20;2.08;;;1.10;99.90;;;;;;4923549;29;20095;-57
2021/12/03 02:27:52;;;;;;;5.45;2.20;;;1.10;99.90;;;;;;4926036;29;20040;-57
2021/12/03 02:30:19;;;;;;;6.85;2.15;;;1.10;99.90;;;;;;4924425;29;20051;-58
2021/12/03 02:32:49;;;;;;;7.15;2.20;;;1.10;99.90;;;;;;4928411;29;20119;-60
2021/12/03 02:35:16;;;;;;;8.95;2.25;;;1.10;99.90;;;;;;4928869;29;20075;-59
2021/12/03 02:37:42;;;;;;;7.45;2.58;;;1.10;99.90;;;;;;4910978;29;20519;-60
2021/12/03 02:40:10;;;;;;;7.65;2.08;;;1.10;99.90;;;;;;4930249;29;20142;-57
2021/12/03 02:42:36;;;;;;;4.63;2.10;;;1.10;99.90;;;;;;4927844;29;20059;-60
2021/12/03 02:45:04;;;;;;;3.88;2.03;;;1.20;99.90;;;;;;4925275;29;20205;-60
2021/12/03 02:47:30;;;;;;;7.72;2.80;;;1.10;99.90;;;;;;4910564;29;20495;-60
2021/12/03 02:49:56;;;;;;;7.65;1.98;;;1.20;99.90;;;;;;4929118;29;20126;-58
2021/12/03 02:52:22;;;;;;;5.68;2.17;;;1.10;99.90;;;;;;4913198;29;20050;-60
2021/12/03 02:54:48;;;;;;;7.93;2.28;;;1.20;99.90;;;;;;4920416;29;20044;-59
2021/12/03 02:57:14;;;;;;;6.22;2.05;;;1.20;99.90;;;;;;4929678;29;20098;-59
2021/12/03 02:59:39;;;;;;;4.95;2.38;;;1.20;99.90;;;;;;4929264;29;20043;-60
2021/12/03 03:02:05;;;;;;;4.50;2.20;;;1.20;99.90;;;;;;4927121;29;20129;-60
2021/12/03 03:04:31;;;;;;;5.55;1.83;;;1.10;99.90;;;;;;4910909;29;20051;-60
2021/12/03 03:06:57;;;;;;;5.75;2.38;;;1.20;99.90;;;;;;4926052;29;20057;-58
2021/12/03 03:09:24;;;;;;;8.50;2.95;;;1.20;99.90;;;;;;4895633;29;20048;-58
2021/12/03 03:11:50;;;;;;;9.80;3.30;;;1.20;99.90;;;;;;4894785;29;20043;-55
2021/12/03 03:14:16;;;;;;;7.25;2.70;;;1.20;99.90;;;;;;4925590;29;20347;-60
2021/12/03 03:16:42;;;;;;;8.38;3.55;;;1.20;99.90;;;;;;4926478;29;20219;-59
2021/12/03 03:19:19;;;;;;;7.55;3.55;;;1.20;99.90;;;;;;4926695;29;20407;-59
2021/12/03 03:21:46;;;;;;;9.10;4.18;;;1.20;99.90;;;;;;4928713;29;20040;-60
2021/12/03 03:24:12;;;;;;;10.77;4.85;;;1.30;99.90;;;;;;4926540;29;20055;-60
2021/12/03 03:26:41;;;;;;;12.15;5.25;;;1.30;99.90;;;;;;4904360;29;20542;-54
2021/12/03 03:29:10;;;;;;;18.08;7.05;;;1.30;99.90;;;;;;4927319;29;20059;-60
2021/12/03 03:31:37;;;;;;;12.98;6.30;;;1.30;99.90;;;;;;4928532;29;20052;-60
2021/12/03 03:34:05;;;;;;;14.25;6.60;;;1.40;99.90;;;;;;4927026;29;20058;-60
2021/12/03 03:36:33;;;;;;;10.95;7.22;;;1.40;99.90;;;;;;4928344;29;20599;-58
2021/12/03 03:38:59;;;;;;;18.60;7.55;;;1.40;99.90;;;;;;4910708;29;20039;-60
2021/12/03 03:41:25;;;;;;;17.45;8.23;;;1.40;99.90;;;;;;4928230;29;20411;-58
2021/12/03 03:43:51;;;;;;;18.98;8.32;;;1.40;99.90;;;;;;4893587;29;20491;-59
2021/12/03 03:46:17;;;;;;;16.23;8.82;;;1.40;99.90;;;;;;4926412;29;20055;-60
2021/12/03 03:48:43;;;;;;;18.10;9.65;;;1.40;99.90;;;;;;4927526;29;20039;-60
2021/12/03 03:51:09;;;;;;;19.70;11.50;;;1.40;99.90;;;;;;4927247;29;20068;-60
2021/12/03 03:53:36;;;;;;;24.48;13.48;;;1.40;99.90;;;;;;4926682;29;20036;-60
2021/12/03 03:56:02;;;;;;;26.38;14.75;;;1.50;99.90;;;;;;4927699;29;20055;-60
2021/12/03 03:58:28;;;;;;;27.17;17.40;;;1.50;99.90;;;;;;4903098;29;20063;-56
2021/12/03 04:00:54;;;;;;;32.25;20.80;;;1.50;99.90;;;;;;4890729;29;20589;-60
2021/12/03 04:03:19;;;;;;;34.78;21.75;;;1.50;99.90;;;;;;4927910;29;20047;-57
2021/12/03 04:05:45;;;;;;;40.40;21.40;;;1.50;99.90;;;;;;4927305;29;20060;-60
2021/12/03 04:08:11;;;;;;;37.90;22.88;;;1.50;99.90;;;;;;4927746;29;20130;-60
2021/12/03 04:10:37;;;;;;;33.38;22.45;;;1.50;99.90;;;;;;4928216;29;20490;-60
2021/12/03 04:13:03;;;;;;;35.97;24.13;;;1.50;99.90;;;;;;4925590;29;20050;-58
2021/12/03 04:15:29;;;;;;;34.05;21.83;;;1.50;99.90;;;;;;4910446;29;20122;-59
2021/12/03 04:17:55;;;;;;;35.60;22.40;;;1.50;99.90;;;;;;4926111;29;20067;-59
2021/12/03 04:20:22;;;;;;;37.38;22.90;;;1.50;99.90;;;;;;4926932;29;20182;-54
2021/12/03 04:22:48;;;;;;;36.35;23.63;;;1.50;99.90;;;;;;4926807;29;20044;-58
2021/12/03 04:25:18;;;;;;;43.83;23.75;;;1.50;99.90;;;;;;4900620;29;20402;-60
2021/12/03 04:27:45;;;;;;;39.85;22.92;;;1.50;99.90;;;;;;4926567;29;20052;-57
2021/12/03 04:30:17;;;;;;;38.35;23.33;;;1.50;99.90;;;;;;4924717;29;20383;-60
2021/12/03 04:32:43;;;;;;;36.22;22.80;;;1.50;99.90;;;;;;4927904;29;20055;-59
2021/12/03 04:35:09;;;;;;;36.58;23.55;;;1.50;99.90;;;;;;4906607;29;20051;-58
2021/12/03 04:37:35;;;;;;;33.40;22.52;;;1.50;99.90;;;;;;4926447;29;20071;-60
2021/12/03 04:40:01;;;;;;;35.58;22.17;;;1.50;99.90;;;;;;4908302;29;20127;-60
2021/12/03 04:42:27;;;;;;;35.42;23.48;;;1.50;99.90;;;;;;4928227;29;20079;-58
2021/12/03 04:44:53;;;;;;;31.80;21.95;;;1.50;99.90;;;;;;4925718;29;20044;-59
2021/12/03 04:47:19;;;;;;;34.53;21.88;;;1.50;99.90;;;;;;4926358;29;20094;-60
2021/12/03 04:49:44;;;;;;;31.85;22.30;;;1.50;99.90;;;;;;4926861;29;20055;-59
2021/12/03 04:52:10;;;;;;;40.05;22.98;;;1.50;99.90;;;;;;4926844;29;20115;-56
2021/12/03 04:54:36;;;;;;;29.75;22.02;;;1.50;99.90;;;;;;4925486;29;20040;-59
2021/12/03 04:57:02;;;;;;;34.38;22.08;;;1.50;99.90;;;;;;4926063;29;20054;-52
2021/12/03 04:59:28;;;;;;;37.03;22.17;;;1.50;99.90;;;;;;4925863;29;20110;-60
2021/12/03 05:01:57;;;;;;;29.98;20.95;;;1.50;99.90;;;;;;4926422;29;20043;-60
2021/12/03 05:04:23;;;;;;;31.90;21.17;;;1.50;99.90;;;;;;4907839;29;20059;-60
2021/12/03 05:09:33;;;;;;;33.72;22.17;;;1.50;99.90;;;;;;4887659;29;20051;-57
2021/12/03 05:11:59;;;;;;;32.20;22.67;;;1.50;99.90;;;;;;4926606;29;20059;-59
2021/12/03 05:14:25;;;;;;;35.92;22.08;;;1.50;99.90;;;;;;4908257;29;20424;-60
2021/12/03 05:16:51;;;;;;;31.65;21.85;;;1.50;99.90;;;;;;4924371;29;20055;-59
2021/12/03 05:19:17;;;;;;;30.85;20.55;;;1.50;99.90;;;;;;4926802;29;20044;-60
2021/12/03 05:21:44;;;;;;;32.03;20.33;;;1.50;99.90;;;;;;4927311;29;20055;-60
2021/12/03 05:24:11;;;;;;;31.17;20.95;;;1.60;99.90;;;;;;4924125;29;20047;-56
2021/12/03 05:26:38;;;;;;;33.08;20.70;;;1.60;99.90;;;;;;4921953;29;20255;-60
2021/12/03 05:29:06;;;;;;;29.10;20.67;;;1.60;99.90;;;;;;4919839;29;20039;-60
2021/12/03 05:31:34;;;;;;;28.73;20.48;;;1.60;99.90;;;;;;4900818;29;20059;-57
2021/12/03 05:34:01;;;;;;;33.03;18.92;;;1.60;99.90;;;;;;4916026;29;20048;-59
2021/12/03 05:36:27;;;;;;;28.80;18.65;;;1.60;99.90;;;;;;4900120;29;20115;-59
2021/12/03 05:38:53;;;;;;;28.90;18.30;;;1.70;99.90;;;;;;4916751;29;20487;-57
2021/12/03 05:41:19;;;;;;;26.27;17.10;;;1.60;99.90;;;;;;4919152;29;20044;-56
2021/12/03 05:43:45;;;;;;;25.75;17.55;;;1.60;99.90;;;;;;4919455;29;20055;-59
2021/12/03 05:46:11;;;;;;;29.23;18.08;;;1.70;99.90;;;;;;4919203;29;20395;-59
2021/12/03 05:48:37;;;;;;;29.08;17.88;;;1.70;99.90;;;;;;4920935;29;20415;-59
2021/12/03 05:51:03;;;;;;;27.30;17.27;;;1.70;99.90;;;;;;4916001;29;20059;-55
2021/12/03 05:53:29;;;;;;;24.70;17.98;;;1.70;99.90;;;;;;4897726;29;20062;-58
2021/12/03 05:55:55;;;;;;;25.98;17.80;;;1.60;99.90;;;;;;4897334;29;20545;-60
2021/12/03 05:58:21;;;;;;;23.73;16.60;;;1.60;99.90;;;;;;4918932;29;20054;-59
2021/12/03 06:00:47;;;;;;;26.77;17.08;;;1.60;99.90;;;;;;4920177;29;20079;-59
2021/12/03 06:03:13;;;;;;;24.63;17.85;;;1.60;99.90;;;;;;4918319;29;20078;-57
2021/12/03 06:05:40;;;;;;;33.95;18.63;;;1.60;99.90;;;;;;4917347;29;20533;-60
2021/12/03 06:08:07;;;;;;;29.17;19.08;;;1.60;99.90;;;;;;4923381;29;20043;-55
2021/12/03 06:10:33;;;;;;;37.08;19.98;;;1.60;99.90;;;;;;4925190;29;20122;-58
2021/12/03 06:12:59;;;;;;;27.92;19.83;;;1.60;99.90;;;;;;4929545;29;20059;-59
2021/12/03 06:15:26;;;;;;;27.10;19.42;;;1.60;99.90;;;;;;4929771;29;20079;-59
2021/12/03 06:17:53;;;;;;;27.45;19.00;;;1.60;99.90;;;;;;4925684;29;20055;-59
2021/12/03 06:20:19;;;;;;;28.42;18.75;;;1.60;99.90;;;;;;4920896;29;20056;-52
2021/12/03 06:22:46;;;;;;;30.20;18.70;;;1.60;99.90;;;;;;4925542;29;20060;-59
2021/12/03 06:25:17;;;;;;;24.75;18.40;;;1.70;99.90;;;;;;4922290;29;20056;-59
2021/12/03 06:27:42;;;;;;;24.02;18.67;;;1.60;99.90;;;;;;4903037;29;20680;-56
2021/12/03 06:30:12;;;;;;;29.02;20.08;;;1.70;99.90;;;;;;4911109;29;20051;-59
2021/12/03 06:32:38;;;;;;;30.33;19.98;;;1.70;99.90;;;;;;4914313;29;20107;-59
2021/12/03 06:35:07;;;;;;;30.85;20.02;;;1.70;99.90;;;;;;4904335;29;20044;-59
2021/12/03 06:37:34;;;;;;;28.60;20.00;;;1.70;99.90;;;;;;4891622;29;20047;-60
2021/12/03 06:40:00;;;;;;;27.60;19.25;;;1.70;99.90;;;;;;4924294;29;20494;-60
2021/12/03 06:42:27;;;;;;;31.00;20.20;;;1.80;99.90;;;;;;4927665;29;20044;-59
2021/12/03 06:44:53;;;;;;;30.65;20.77;;;1.80;99.90;;;;;;4925851;29;20499;-60
2021/12/03 06:47:19;;;;;;;27.25;20.75;;;1.80;99.90;;;;;;4927480;29;20059;-56
2021/12/03 06:49:47;;;;;;;30.58;20.70;;;1.80;99.90;;;;;;4922299;29;20114;-59
2021/12/03 06:52:15;;;;;;;28.52;19.95;;;1.80;99.90;;;;;;4926444;29;20163;-60
2021/12/03 06:54:42;;;;;;;30.70;20.10;;;1.80;99.90;;;;;;4926123;29;20051;-60
2021/12/03 06:57:10;;;;;;;30.17;20.40;;;1.80;99.90;;;;;;4910937;29;20044;-60
2021/12/03 06:59:37;;;;;;;30.70;20.08;;;1.90;99.90;;;;;;4927560;29;20181;-60
2021/12/03 07:02:04;;;;;;;31.65;18.67;;;1.90;99.90;;;;;;4930294;29;20140;-60
2021/12/03 07:04:30;;;;;;;30.67;17.77;;;1.90;99.90;;;;;;4921531;29;20601;-60
2021/12/03 07:06:55;;;;;;;26.75;18.13;;;2.00;99.90;;;;;;4923168;29;20470;-59
2021/12/03 07:09:21;;;;;;;26.30;17.38;;;2.00;99.90;;;;;;4924834;29;20063;-59
2021/12/03 07:11:47;;;;;;;24.73;16.27;;;2.00;99.90;;;;;;4924353;29;20062;-57
2021/12/03 07:14:13;;;;;;;30.15;17.88;;;2.00;99.90;;;;;;4918197;29;20055;-60
2021/12/03 07:16:39;;;;;;;27.15;17.27;;;2.00;99.90;;;;;;4926117;29;20052;-55
2021/12/03 07:19:06;;;;;;;30.35;17.23;;;2.10;99.90;;;;;;4927648;29;20144;-60
2021/12/03 07:21:33;;;;;;;23.05;15.27;;;2.10;99.90;;;;;;4926704;29;20127;-60
2021/12/03 07:23:58;;;;;;;28.75;15.57;;;2.20;99.90;;;;;;4927918;29;20048;-59
2021/12/03 07:26:24;;;;;;;23.58;13.75;;;2.20;99.90;;;;;;4925322;29;20091;-60
2021/12/03 07:28:52;;;;;;;28.63;14.48;;;2.20;99.90;;;;;;4929374;29;20055;-53
2021/12/03 07:31:18;;;;;;;20.92;13.00;;;2.20;99.90;;;;;;4928676;29;20048;-59
2021/12/03 07:33:44;;;;;;;24.88;13.60;;;2.30;99.90;;;;;;4927226;29;20089;-59
2021/12/03 07:36:10;;;;;;;25.55;13.80;;;2.30;99.90;;;;;;4926811;29;20131;-58
2021/12/03 07:38:37;;;;;;;22.20;13.00;;;2.40;99.90;;;;;;4926139;29;20044;-60
2021/12/03 07:41:04;;;;;;;22.52;13.50;;;2.30;99.90;;;;;;4928061;29;20134;-54
2021/12/03 07:43:30;;;;;;;20.95;12.20;;;2.40;99.90;;;;;;4923230;29;20456;-59
2021/12/03 07:45:56;;;;;;;17.20;11.73;;;2.40;99.90;;;;;;4927838;29;20098;-59
2021/12/03 07:48:23;;;;;;;22.45;11.93;;;2.40;99.90;;;;;;4928810;29;20169;-58
2021/12/03 07:50:50;;;;;;;19.15;9.65;;;2.40;99.90;;;;;;4926763;29;20055;-60
2021/12/03 07:53:19;;;;;;;13.27;9.23;;;2.50;99.90;;;;;;4909282;29;20063;-57
2021/12/03 07:55:47;;;;;;;15.68;8.13;;;2.50;99.90;;;;;;4927851;29;20040;-60
2021/12/03 07:58:13;;;;;;;20.35;7.93;;;2.50;99.90;;;;;;4928776;29;20052;-60
2021/12/03 08:00:40;;;;;;;15.85;7.95;;;2.60;99.90;;;;;;4910465;29;20039;-56
2021/12/03 08:03:06;;;;;;;14.77;7.80;;;2.50;99.90;;;;;;4926366;29;20054;-59
2021/12/03 08:05:32;;;;;;;13.95;7.10;;;2.50;99.90;;;;;;4926796;29;20047;-57
2021/12/03 08:07:59;;;;;;;14.90;7.32;;;2.50;99.90;;;;;;4927982;29;20055;-60
2021/12/03 08:10:26;;;;;;;13.85;7.35;;;2.50;99.90;;;;;;4926912;29;20052;-60
2021/12/03 08:12:52;;;;;;;14.02;6.82;;;2.50;99.90;;;;;;4928637;29;20139;-59
2021/12/03 08:15:18;;;;;;;12.32;7.80;;;2.50;99.90;;;;;;4927701;29;20047;-59
2021/12/03 08:17:48;;;;;;;13.15;7.07;;;2.50;99.90;;;;;;4927657;29;20126;-57
2021/12/03 08:20:15;;;;;;;12.80;7.05;;;2.50;99.90;;;;;;4927657;29;20051;-60
2021/12/03 08:22:42;;;;;;;14.65;7.07;;;2.60;99.90;;;;;;4909804;29;20044;-60
2021/12/03 08:25:09;;;;;;;14.13;7.20;;;2.60;99.90;;;;;;4927683;29;20165;-57
2021/12/03 08:27:36;;;;;;;11.80;6.65;;;2.60;99.90;;;;;;4926920;29;20078;-60
2021/12/03 08:30:04;;;;;;;11.73;7.18;;;2.70;99.90;;;;;;4926599;29;20228;-60
2021/12/03 08:32:30;;;;;;;15.65;7.20;;;2.70;99.90;;;;;;4927063;29;20111;-56
2021/12/03 08:34:57;;;;;;;18.30;8.68;;;2.70;99.90;;;;;;4926588;29;20051;-59
2021/12/03 08:37:23;;;;;;;12.98;7.00;;;2.70;99.90;;;;;;4927736;29;20110;-58
2021/12/03 08:39:49;;;;;;;14.43;7.45;;;2.70;99.90;;;;;;4927412;29;20173;-59
2021/12/03 08:42:16;;;;;;;14.07;6.57;;;2.80;99.90;;;;;;4926197;29;20557;-59
2021/12/03 08:44:41;;;;;;;14.43;7.03;;;2.80;99.90;;;;;;4910528;29;20050;-60
2021/12/03 08:47:07;;;;;;;20.30;8.15;;;2.90;99.90;;;;;;4927112;29;20508;-59
2021/12/03 08:49:50;;;;;;;15.48;7.43;;;2.90;99.90;;;;;;4927674;29;20054;-60
2021/12/03 08:54:55;;;;;;;21.83;7.20;;;3.00;99.90;;;;;;4905661;29;20060;-59
2021/12/03 08:57:32;;;;;;;17.10;6.85;;;3.00;99.90;;;;;;4907955;29;20506;-60
2021/12/03 09:00:01;;;;;;;18.27;7.32;;;3.00;99.90;;;;;;4890819;29;20127;-60
2021/12/03 09:02:27;;;;;;;12.90;7.90;;;3.10;99.90;;;;;;4907237;29;20115;-60
2021/12/03 09:04:53;;;;;;;13.80;7.18;;;3.10;99.90;;;;;;4908693;29;20601;-57
2021/12/03 09:07:19;;;;;;;18.23;9.48;;;3.10;99.90;;;;;;4907405;29;20527;-60
2021/12/03 09:09:45;;;;;;;13.95;9.00;;;3.10;99.90;;;;;;4908250;29;20055;-56
2021/12/03 09:12:12;;;;;;;21.92;10.20;;;3.20;99.90;;;;;;4908212;29;20056;-60
2021/12/03 09:14:50;;;;;;;22.60;10.50;;;3.20;99.90;;;;;;4907749;29;20450;-59
2021/12/03 09:23:10;;;;;;;19.77;11.13;;;3.30;99.90;;;;;;4908888;29;20036;-59
2021/12/03 09:25:10;;;;;;;26.70;9.68;;;3.30;99.90;;;;;;4882299;29;20070;-54
2021/12/03 09:27:36;;;;;;;20.83;11.65;;;3.20;99.90;;;;;;4891646;29;20107;-60
2021/12/03 09:30:06;;;;;;;24.50;12.10;;;3.30;99.90;;;;;;4908651;29;20056;-60
2021/12/03 09:32:32;;;;;;;21.50;10.82;;;3.30;99.90;;;;;;4891661;29;20507;-58
2021/12/03 09:35:00;;;;;;;21.52;10.23;;;3.30;99.90;;;;;;4907617;29;20107;-59
2021/12/03 09:37:25;;;;;;;15.13;9.70;;;3.40;99.90;;;;;;4908444;29;20051;-58
2021/12/03 09:39:53;;;;;;;20.95;10.48;;;3.50;99.90;;;;;;4893671;29;20048;-60
2021/12/03 09:42:19;;;;;;;25.67;11.13;;;3.40;99.90;;;;;;4914680;29;20048;-60
2021/12/03 09:44:47;;;;;;;23.70;11.77;;;3.40;99.90;;;;;;4913984;29;20055;-58
2021/12/03 09:47:17;;;;;;;19.75;11.52;;;3.40;99.90;;;;;;4914833;29;20052;-60
2021/12/03 09:49:44;;;;;;;28.58;12.13;;;3.40;99.90;;;;;;4914358;29;20055;-60
2021/12/03 09:52:44;;;;;;;20.50;12.18;;;3.50;99.90;;;;;;4932653;29;20565;-60
2021/12/03 09:55:02;;;;;;;23.55;12.73;;;3.50;99.90;;;;;;4932085;29;20062;-60
2021/12/03 09:57:41;;;;;;;27.30;12.63;;;3.50;99.90;;;;;;4933231;29;20040;-59
2021/12/03 10:00:24;;;;;;;26.77;13.10;;;3.50;99.90;;;;;;4933635;29;20286;-59
2021/12/03 10:14:16;;;;;;;27.58;12.73;;;3.50;99.90;;;;;;4932330;29;20048;-59
2021/12/03 10:17:20;;;;;;;21.08;12.00;;;3.60;99.90;;;;;;4932306;29;20147;-59
2021/12/03 10:20:28;;;;;;;25.65;11.77;;;3.60;99.90;;;;;;4932604;29;20050;-58
2021/12/03 10:38:52;;;;;;;22.90;11.35;;;3.70;99.90;;;;;;4932583;29;20125;-60
2021/12/03 10:43:44;;;;;;;21.38;10.13;;;3.80;99.90;;;;;;4913419;29;20043;-59
2021/12/03 11:00:42;;;;;;;25.02;9.57;;;3.90;99.90;;;;;;4928600;29;20070;-58
2021/12/03 12:39:50;;;;;;;15.60;6.25;;;3.70;99.90;;;;;;4924561;29;20047;-58
2021/12/03 12:42:39;;;;;;;14.13;6.10;;;3.70;99.90;;;;;;4923135;29;20052;-58
2021/12/03 12:45:12;;;;;;;21.05;6.40;;;3.70;99.90;;;;;;4923757;29;20086;-56
2021/12/03 12:59:37;;;;;;;13.82;8.60;;;3.60;99.90;;;;;;4908257;29;20118;-57
2021/12/03 13:39:26;;;;;;;15.98;7.82;;;3.60;99.90;;;;;;4908221;29;20470;-58
2021/12/03 13:44:02;;;;;;;15.65;7.60;;;3.70;99.90;;;;;;4923251;29;20043;-57
2021/12/03 14:08:21;;;;;;;16.17;7.32;;;3.80;99.90;;;;;;4926662;29;20128;-55
2021/12/03 14:29:15;;;;;;;16.10;7.32;;;3.90;99.90;;;;;;4911758;29;20075;-59
2021/12/03 14:32:17;;;;;;;20.42;7.80;;;3.90;99.90;;;;;;4928176;29;20070;-60
2021/12/03 15:08:26;;;;;;;12.02;6.40;;;4.10;99.90;;;;;;4930548;29;19922;-55
2021/12/03 15:18:52;;;;;;;14.07;7.18;;;4.10;99.90;;;;;;4912566;29;20048;-58
2021/12/03 15:34:05;;;;;;;15.35;8.60;;;4.10;99.90;;;;;;4928119;29;20075;-59
2021/12/03 15:55:34;;;;;;;17.50;11.95;;;4.00;99.90;;;;;;4910647;29;20102;-57
2021/12/03 16:03:33;;;;;;;19.33;12.15;;;4.00;99.90;;;;;;4914238;29;20044;-59
2021/12/03 16:08:47;;;;;;;23.60;13.48;;;4.00;99.90;;;;;;4889485;29;20055;-59
2021/12/03 16:11:39;;;;;;;21.73;13.90;;;4.00;99.90;;;;;;4927918;29;20103;-59
2021/12/03 16:14:29;;;;;;;24.30;14.23;;;4.00;99.90;;;;;;4928067;29;20060;-58
2021/12/03 16:20:24;;;;;;;21.95;13.43;;;4.00;99.90;;;;;;4886057;29;20055;-55
2021/12/03 16:22:45;;;;;;;17.83;13.38;;;4.10;99.90;;;;;;4924913;29;20139;-59
2021/12/03 16:52:47;;;;;;;20.58;14.30;;;4.10;99.90;;;;;;4927292;29;21226;-60
2021/12/03 16:55:14;;;;;;;20.77;15.18;;;4.10;99.90;;;;;;4909955;29;20052;-59
2021/12/03 16:57:41;;;;;;;19.88;15.65;;;4.20;99.90;;;;;;4912018;29;20392;-59
2021/12/03 17:03:06;;;;;;;21.98;16.48;;;4.20;99.90;;;;;;4928218;29;20044;-60
2021/12/03 17:55:34;;;;;;;21.65;17.02;;;4.20;99.90;;;;;;4922391;29;20477;-58
2021/12/03 18:01:01;;;;;;;23.08;18.05;;;4.10;99.90;;;;;;4905492;29;20051;-59
2021/12/03 18:54:36;;;;;;;32.42;22.48;;;4.40;99.90;;;;;;4909961;29;20459;-53
2021/12/03 18:57:14;;;;;;;30.73;21.60;;;4.30;99.90;;;;;;4929406;29;20107;-58
2021/12/03 18:59:51;;;;;;;32.13;22.30;;;4.40;99.90;;;;;;4929722;29;20431;-58
2021/12/03 19:02:17;;;;;;;35.65;23.50;;;4.40;99.90;;;;;;4914435;29;20040;-59
2021/12/03 19:04:50;;;;;;;35.40;23.67;;;4.40;99.90;;;;;;4910039;29;20108;-60
2021/12/03 19:07:21;;;;;;;36.40;22.98;;;4.40;99.90;;;;;;4928003;29;20612;-56
2021/12/03 19:09:51;;;;;;;35.50;22.65;;;4.40;99.90;;;;;;4928713;29;20058;-59
2021/12/03 19:12:28;;;;;;;34.78;23.33;;;4.40;99.90;;;;;;4924478;29;20499;-58
2021/12/03 19:14:58;;;;;;;35.92;23.45;;;4.40;99.90;;;;;;4929553;29;20451;-59
2021/12/03 19:17:25;;;;;;;38.70;25.00;;;4.40;99.90;;;;;;4907306;29;20060;-58
2021/12/03 19:19:56;;;;;;;36.50;23.88;;;4.50;99.90;;;;;;4927970;29;20098;-59
2021/12/03 19:22:22;;;;;;;37.13;23.92;;;4.50;99.90;;;;;;4910616;29;20050;-58
2021/12/03 19:24:50;;;;;;;37.83;24.52;;;4.40;99.90;;;;;;4911341;29;20411;-59
2021/12/03 19:27:16;;;;;;;37.40;24.30;;;4.50;99.90;;;;;;4911841;29;20103;-55
2021/12/03 19:29:43;;;;;;;38.20;24.85;;;4.40;99.90;;;;;;4929493;29;20051;-58
2021/12/03 19:32:10;;;;;;;46.70;27.15;;;4.50;99.90;;;;;;4929278;29;20586;-58
2021/12/03 19:34:36;;;;;;;40.65;26.27;;;4.50;99.90;;;;;;4926914;29;20060;-54
2021/12/03 19:37:02;;;;;;;38.92;25.40;;;4.50;99.90;;;;;;4927549;29;20094;-59
2021/12/03 19:39:28;;;;;;;41.15;27.15;;;4.50;99.90;;;;;;4928940;29;20051;-56
2021/12/03 19:42:17;;;;;;;43.90;27.23;;;4.50;99.90;;;;;;4929860;29;20039;-60
2021/12/03 19:47:11;;;;;;;40.92;26.92;;;4.50;99.90;;;;;;4911267;29;20054;-57
2021/12/03 19:49:53;;;;;;;43.28;27.77;;;4.50;99.90;;;;;;4927690;29;20048;-58
2021/12/03 19:52:27;;;;;;;46.65;28.88;;;4.50;99.90;;;;;;4926835;29;20059;-56
2021/12/03 19:54:55;;;;;;;45.90;29.30;;;4.50;99.90;;;;;;4908973;29;20048;-59
2021/12/03 19:57:22;;;;;;;47.25;28.40;;;4.50;99.90;;;;;;4926204;29;20458;-57
2021/12/03 19:59:48;;;;;;;49.78;30.67;;;4.50;99.90;;;;;;4900962;29;20040;-57
2021/12/03 20:02:14;;;;;;;51.97;32.00;;;4.50;99.90;;;;;;4925029;29;20151;-52
2021/12/03 20:04:41;;;;;;;53.00;30.65;;;4.50;99.90;;;;;;4925576;29;20131;-59
2021/12/03 20:07:07;;;;;;;49.92;31.20;;;4.50;99.90;;;;;;4927749;29;20376;-59
2021/12/03 20:12:25;;;;;;;50.63;31.27;;;4.50;99.90;;;;;;4898905;29;20574;-56
2021/12/03 20:14:52;;;;;;;52.40;32.55;;;4.60;99.90;;;;;;4927885;29;20083;-60
2021/12/03 20:17:31;;;;;;;53.88;33.17;;;4.50;99.90;;;;;;4929128;29;20048;-57
2021/12/03 20:19:59;;;;;;;54.45;33.15;;;4.50;99.90;;;;;;4908209;29;20139;-59
2021/12/03 20:22:37;;;;;;;55.92;33.63;;;4.50;99.90;;;;;;4911083;29;20667;-56
2021/12/03 20:25:29;;;;;;;54.70;33.58;;;4.50;99.90;;;;;;4924983;29;20051;-57
2021/12/03 20:28:06;;;;;;;60.78;35.10;;;4.50;99.90;;;;;;4921647;29;20054;-59
2021/12/03 20:35:54;;;;;;;55.97;33.08;;;4.60;99.90;;;;;;4927641;29;20048;-55
2021/12/03 20:38:14;;;;;;;59.28;33.78;;;4.60;99.90;;;;;;4927715;29;20047;-57
2021/12/03 20:40:40;;;;;;;60.17;34.28;;;4.60;99.90;;;;;;4927124;29;20044;-59